sensor_id;sensor_type;location;lat;lon;timestamp;temperature;humidity
40534;DHT22;26233;51.894;10.192;2023-04-06T00:00:55;6.10;26.00
40534;DHT22;26233;51.894;10.192;2023-04-06T00:03:22;6.10;26.00
40534;DHT22;26233;51.894;10.192;2023-04-06T00:05:51;6.10;26.00
40534;DHT22;26233;51.894;10.192;2023-04-06T00:08:18;6.10;26.00
40534;DHT22;26233;51.894;10.192;2023-04-06T00:10:47;6.10;26.00
40534;DHT22;26233;51.894;10.192;2023-04-06T00:13:14;6.30;26.10
40534;DHT22;26233;51.894;10.192;2023-04-06T00:15:44;6.10;26.00
40534;DHT22;26233;51.894;10.192;2023-04-06T00:18:11;6.20;26.10
40534;DHT22;26233;51.894;10.192;2023-04-06T00:20:41;6.10;26.00
40534;DHT22;26233;51.894;10.192;2023-04-06T00:23:10;6.20;26.00
40534;DHT22;26233;51.894;10.192;2023-04-06T00:25:37;6.20;26.00
40534;DHT22;26233;51.894;10.192;2023-04-06T00:28:04;6.20;26.00
40534;DHT22;26233;51.894;10.192;2023-04-06T00:30:34;6.20;26.00
40534;DHT22;26233;51.894;10.192;2023-04-06T00:33:01;6.20;26.00
40534;DHT22;26233;51.894;10.192;2023-04-06T00:35:28;6.30;26.00
40534;DHT22;26233;51.894;10.192;2023-04-06T00:37:56;6.30;26.00
40534;DHT22;26233;51.894;10.192;2023-04-06T00:40:24;6.30;26.00
40534;DHT22;26233;51.894;10.192;2023-04-06T00:42:53;6.30;26.00
40534;DHT22;26233;51.894;10.192;2023-04-06T00:45:21;6.30;26.00
40534;DHT22;26233;51.894;10.192;2023-04-06T00:47:48;6.30;25.90
40534;DHT22;26233;51.894;10.192;2023-04-06T00:50:15;6.30;26.00
40534;DHT22;26233;51.894;10.192;2023-04-06T00:52:43;6.30;26.00
40534;DHT22;26233;51.894;10.192;2023-04-06T00:55:12;6.30;26.00
40534;DHT22;26233;51.894;10.192;2023-04-06T00:57:41;6.40;26.10
40534;DHT22;26233;51.894;10.192;2023-04-06T01:00:09;6.30;26.00
40534;DHT22;26233;51.894;10.192;2023-04-06T01:02:39;6.30;26.00
40534;DHT22;26233;51.894;10.192;2023-04-06T01:05:07;6.30;26.00
40534;DHT22;26233;51.894;10.192;2023-04-06T01:07:34;6.40;26.00
40534;DHT22;26233;51.894;10.192;2023-04-06T01:10:02;6.40;26.00
40534;DHT22;26233;51.894;10.192;2023-04-06T01:12:29;6.30;26.00
40534;DHT22;26233;51.894;10.192;2023-04-06T01:14:58;6.30;26.00
40534;DHT22;26233;51.894;10.192;2023-04-06T01:17:25;6.30;26.00
40534;DHT22;26233;51.894;10.192;2023-04-06T01:19:54;6.30;26.00
40534;DHT22;26233;51.894;10.192;2023-04-06T01:22:24;6.30;26.00
40534;DHT22;26233;51.894;10.192;2023-04-06T01:24:51;6.30;26.10
40534;DHT22;26233;51.894;10.192;2023-04-06T01:27:18;6.30;26.00
40534;DHT22;26233;51.894;10.192;2023-04-06T01:29:45;6.30;26.10
40534;DHT22;26233;51.894;10.192;2023-04-06T01:32:13;6.30;26.10
40534;DHT22;26233;51.894;10.192;2023-04-06T01:34:40;6.30;26.10
40534;DHT22;26233;51.894;10.192;2023-04-06T01:37:07;6.30;26.10
40534;DHT22;26233;51.894;10.192;2023-04-06T01:39:35;6.40;26.20
40534;DHT22;26233;51.894;10.192;2023-04-06T01:42:03;6.40;26.20
40534;DHT22;26233;51.894;10.192;2023-04-06T01:44:30;6.30;26.10
40534;DHT22;26233;51.894;10.192;2023-04-06T01:46:57;6.30;26.10
40534;DHT22;26233;51.894;10.192;2023-04-06T01:49:24;6.30;26.10
40534;DHT22;26233;51.894;10.192;2023-04-06T01:51:51;6.20;26.10
40534;DHT22;26233;51.894;10.192;2023-04-06T01:54:19;6.30;26.10
40534;DHT22;26233;51.894;10.192;2023-04-06T01:56:48;6.20;26.10
40534;DHT22;26233;51.894;10.192;2023-04-06T01:59:17;6.20;26.10
40534;DHT22;26233;51.894;10.192;2023-04-06T02:01:45;6.20;26.10
40534;DHT22;26233;51.894;10.192;2023-04-06T02:04:12;6.20;26.10
40534;DHT22;26233;51.894;10.192;2023-04-06T02:06:40;6.20;26.10
40534;DHT22;26233;51.894;10.192;2023-04-06T02:09:07;6.20;26.10
40534;DHT22;26233;51.894;10.192;2023-04-06T02:11:34;6.20;26.20
40534;DHT22;26233;51.894;10.192;2023-04-06T02:14:03;6.20;26.20
40534;DHT22;26233;51.894;10.192;2023-04-06T02:16:30;6.20;26.20
40534;DHT22;26233;51.894;10.192;2023-04-06T02:18:57;6.20;26.20
40534;DHT22;26233;51.894;10.192;2023-04-06T02:21:27;6.20;26.10
40534;DHT22;26233;51.894;10.192;2023-04-06T02:23:54;6.20;26.20
40534;DHT22;26233;51.894;10.192;2023-04-06T02:26:21;6.20;26.10
40534;DHT22;26233;51.894;10.192;2023-04-06T02:28:48;6.20;26.20
40534;DHT22;26233;51.894;10.192;2023-04-06T02:31:17;6.20;26.20
40534;DHT22;26233;51.894;10.192;2023-04-06T02:33:44;6.20;26.20
40534;DHT22;26233;51.894;10.192;2023-04-06T02:36:11;6.10;26.10
40534;DHT22;26233;51.894;10.192;2023-04-06T02:38:38;6.10;26.10
40534;DHT22;26233;51.894;10.192;2023-04-06T02:41:05;6.10;26.20
40534;DHT22;26233;51.894;10.192;2023-04-06T02:43:33;6.10;26.20
40534;DHT22;26233;51.894;10.192;2023-04-06T02:46:00;6.10;26.20
40534;DHT22;26233;51.894;10.192;2023-04-06T02:48:29;6.10;26.20
40534;DHT22;26233;51.894;10.192;2023-04-06T02:50:56;6.10;26.20
40534;DHT22;26233;51.894;10.192;2023-04-06T02:53:25;6.10;26.20
40534;DHT22;26233;51.894;10.192;2023-04-06T02:55:53;6.10;26.20
40534;DHT22;26233;51.894;10.192;2023-04-06T02:58:21;6.10;26.20
40534;DHT22;26233;51.894;10.192;2023-04-06T03:00:49;6.10;26.20
40534;DHT22;26233;51.894;10.192;2023-04-06T03:03:16;6.10;26.20
40534;DHT22;26233;51.894;10.192;2023-04-06T03:05:44;6.10;26.20
40534;DHT22;26233;51.894;10.192;2023-04-06T03:08:15;6.10;26.20
40534;DHT22;26233;51.894;10.192;2023-04-06T03:10:42;6.10;26.20
40534;DHT22;26233;51.894;10.192;2023-04-06T03:13:10;6.20;26.30
40534;DHT22;26233;51.894;10.192;2023-04-06T03:15:40;6.00;26.10
40534;DHT22;26233;51.894;10.192;2023-04-06T03:18:07;6.10;26.20
40534;DHT22;26233;51.894;10.192;2023-04-06T03:20:34;6.00;26.10
40534;DHT22;26233;51.894;10.192;2023-04-06T03:23:02;6.00;26.20
40534;DHT22;26233;51.894;10.192;2023-04-06T03:25:29;6.10;26.30
40534;DHT22;26233;51.894;10.192;2023-04-06T03:27:57;6.10;26.30
40534;DHT22;26233;51.894;10.192;2023-04-06T03:30:24;6.10;26.20
40534;DHT22;26233;51.894;10.192;2023-04-06T03:32:52;6.10;26.30
40534;DHT22;26233;51.894;10.192;2023-04-06T03:35:19;6.10;26.30
40534;DHT22;26233;51.894;10.192;2023-04-06T03:37:46;6.00;26.20
40534;DHT22;26233;51.894;10.192;2023-04-06T03:40:14;6.10;26.30
40534;DHT22;26233;51.894;10.192;2023-04-06T03:42:42;6.10;26.30
40534;DHT22;26233;51.894;10.192;2023-04-06T03:45:09;6.00;26.20
40534;DHT22;26233;51.894;10.192;2023-04-06T03:47:38;6.00;26.30
40534;DHT22;26233;51.894;10.192;2023-04-06T03:50:06;6.10;26.30
40534;DHT22;26233;51.894;10.192;2023-04-06T03:52:35;6.10;26.40
40534;DHT22;26233;51.894;10.192;2023-04-06T03:55:03;6.10;26.40
40534;DHT22;26233;51.894;10.192;2023-04-06T03:57:32;6.10;26.30
40534;DHT22;26233;51.894;10.192;2023-04-06T03:59:59;6.10;26.40
40534;DHT22;26233;51.894;10.192;2023-04-06T04:02:26;6.10;26.40
40534;DHT22;26233;51.894;10.192;2023-04-06T04:04:53;6.10;26.40
40534;DHT22;26233;51.894;10.192;2023-04-06T04:07:20;6.10;26.40
40534;DHT22;26233;51.894;10.192;2023-04-06T04:09:47;6.10;26.40
40534;DHT22;26233;51.894;10.192;2023-04-06T04:12:15;6.20;26.40
40534;DHT22;26233;51.894;10.192;2023-04-06T04:14:43;6.20;26.40
40534;DHT22;26233;51.894;10.192;2023-04-06T04:17:10;6.20;26.40
40534;DHT22;26233;51.894;10.192;2023-04-06T04:19:38;6.20;26.40
40534;DHT22;26233;51.894;10.192;2023-04-06T04:22:05;6.20;26.40
40534;DHT22;26233;51.894;10.192;2023-04-06T04:24:33;6.30;26.40
40534;DHT22;26233;51.894;10.192;2023-04-06T04:27:00;6.10;26.30
40534;DHT22;26233;51.894;10.192;2023-04-06T04:29:27;6.10;26.40
40534;DHT22;26233;51.894;10.192;2023-04-06T04:31:56;6.10;26.30
40534;DHT22;26233;51.894;10.192;2023-04-06T04:34:23;6.10;26.30
40534;DHT22;26233;51.894;10.192;2023-04-06T04:36:50;6.10;26.40
40534;DHT22;26233;51.894;10.192;2023-04-06T04:39:18;6.10;26.40
40534;DHT22;26233;51.894;10.192;2023-04-06T04:41:45;6.10;26.40
40534;DHT22;26233;51.894;10.192;2023-04-06T04:44:14;6.00;26.40
40534;DHT22;26233;51.894;10.192;2023-04-06T04:46:41;6.00;26.50
40534;DHT22;26233;51.894;10.192;2023-04-06T04:49:09;6.00;26.50
40534;DHT22;26233;51.894;10.192;2023-04-06T04:51:36;6.00;26.50
40534;DHT22;26233;51.894;10.192;2023-04-06T04:54:04;5.90;26.60
40534;DHT22;26233;51.894;10.192;2023-04-06T04:56:31;5.90;26.60
40534;DHT22;26233;51.894;10.192;2023-04-06T04:58:58;5.90;26.70
40534;DHT22;26233;51.894;10.192;2023-04-06T05:01:25;5.80;26.60
40534;DHT22;26233;51.894;10.192;2023-04-06T05:03:52;5.80;26.70
40534;DHT22;26233;51.894;10.192;2023-04-06T05:06:22;5.70;26.70
40534;DHT22;26233;51.894;10.192;2023-04-06T05:08:49;5.70;26.80
40534;DHT22;26233;51.894;10.192;2023-04-06T05:11:16;5.60;26.70
40534;DHT22;26233;51.894;10.192;2023-04-06T05:13:43;5.60;26.70
40534;DHT22;26233;51.894;10.192;2023-04-06T05:16:11;5.60;26.80
40534;DHT22;26233;51.894;10.192;2023-04-06T05:18:41;5.60;26.70
40534;DHT22;26233;51.894;10.192;2023-04-06T05:21:09;5.60;26.70
40534;DHT22;26233;51.894;10.192;2023-04-06T05:23:38;5.60;26.70
40534;DHT22;26233;51.894;10.192;2023-04-06T05:26:05;5.60;26.80
40534;DHT22;26233;51.894;10.192;2023-04-06T05:28:32;5.70;26.80
40534;DHT22;26233;51.894;10.192;2023-04-06T05:31:00;5.80;26.90
40534;DHT22;26233;51.894;10.192;2023-04-06T05:33:27;5.80;27.40
40534;DHT22;26233;51.894;10.192;2023-04-06T05:35:55;5.90;27.00
40534;DHT22;26233;51.894;10.192;2023-04-06T05:38:22;5.90;27.00
40534;DHT22;26233;51.894;10.192;2023-04-06T05:40:51;6.00;27.30
40534;DHT22;26233;51.894;10.192;2023-04-06T05:43:18;5.90;27.20
40534;DHT22;26233;51.894;10.192;2023-04-06T05:45:45;5.90;27.40
40534;DHT22;26233;51.894;10.192;2023-04-06T05:48:12;6.10;27.90
40534;DHT22;26233;51.894;10.192;2023-04-06T05:50:39;6.30;28.30
40534;DHT22;26233;51.894;10.192;2023-04-06T05:53:06;6.70;28.70
40534;DHT22;26233;51.894;10.192;2023-04-06T05:55:33;7.00;28.80
40534;DHT22;26233;51.894;10.192;2023-04-06T05:58:04;7.30;28.60
40534;DHT22;26233;51.894;10.192;2023-04-06T06:00:31;7.60;28.30
40534;DHT22;26233;51.894;10.192;2023-04-06T06:02:58;7.90;28.30
40534;DHT22;26233;51.894;10.192;2023-04-06T06:05:25;8.20;28.40
40534;DHT22;26233;51.894;10.192;2023-04-06T06:07:52;8.60;28.70
40534;DHT22;26233;51.894;10.192;2023-04-06T06:10:20;9.10;29.20
40534;DHT22;26233;51.894;10.192;2023-04-06T06:12:47;9.40;29.30
40534;DHT22;26233;51.894;10.192;2023-04-06T06:15:15;10.10;28.80
40534;DHT22;26233;51.894;10.192;2023-04-06T06:17:43;10.70;28.80
40534;DHT22;26233;51.894;10.192;2023-04-06T06:20:12;11.20;28.90
40534;DHT22;26233;51.894;10.192;2023-04-06T06:22:40;11.80;29.00
40534;DHT22;26233;51.894;10.192;2023-04-06T06:25:08;12.40;29.00
40534;DHT22;26233;51.894;10.192;2023-04-06T06:27:35;13.00;29.10
40534;DHT22;26233;51.894;10.192;2023-04-06T06:30:03;13.50;28.90
40534;DHT22;26233;51.894;10.192;2023-04-06T06:32:32;14.00;28.80
40534;DHT22;26233;51.894;10.192;2023-04-06T06:35:02;14.40;28.70
40534;DHT22;26233;51.894;10.192;2023-04-06T06:37:30;14.90;28.50
40534;DHT22;26233;51.894;10.192;2023-04-06T06:39:57;15.30;28.50
40534;DHT22;26233;51.894;10.192;2023-04-06T06:42:24;15.70;28.30
40534;DHT22;26233;51.894;10.192;2023-04-06T06:44:51;16.10;28.40
40534;DHT22;26233;51.894;10.192;2023-04-06T06:47:18;16.40;28.10
40534;DHT22;26233;51.894;10.192;2023-04-06T06:49:47;16.80;28.10
40534;DHT22;26233;51.894;10.192;2023-04-06T06:52:14;17.10;27.90
40534;DHT22;26233;51.894;10.192;2023-04-06T06:54:41;17.30;27.80
40534;DHT22;26233;51.894;10.192;2023-04-06T06:57:09;17.60;27.80
40534;DHT22;26233;51.894;10.192;2023-04-06T06:59:36;17.90;27.80
40534;DHT22;26233;51.894;10.192;2023-04-06T07:02:06;18.20;27.90
40534;DHT22;26233;51.894;10.192;2023-04-06T07:04:35;18.60;27.90
40534;DHT22;26233;51.894;10.192;2023-04-06T07:07:03;18.80;27.70
40534;DHT22;26233;51.894;10.192;2023-04-06T07:09:30;19.10;27.80
40534;DHT22;26233;51.894;10.192;2023-04-06T07:11:58;19.40;27.80
40534;DHT22;26233;51.894;10.192;2023-04-06T07:14:26;19.60;27.50
40534;DHT22;26233;51.894;10.192;2023-04-06T07:16:53;19.90;27.50
40534;DHT22;26233;51.894;10.192;2023-04-06T07:19:20;20.00;27.40
40534;DHT22;26233;51.894;10.192;2023-04-06T07:21:47;20.20;27.20
40534;DHT22;26233;51.894;10.192;2023-04-06T07:24:17;20.40;27.20
40534;DHT22;26233;51.894;10.192;2023-04-06T07:26:44;20.60;27.20
40534;DHT22;26233;51.894;10.192;2023-04-06T07:29:11;20.90;27.30
40534;DHT22;26233;51.894;10.192;2023-04-06T07:31:38;21.10;27.10
40534;DHT22;26233;51.894;10.192;2023-04-06T07:34:05;21.30;27.10
40534;DHT22;26233;51.894;10.192;2023-04-06T07:36:33;21.50;26.80
40534;DHT22;26233;51.894;10.192;2023-04-06T07:39:00;21.70;26.70
40534;DHT22;26233;51.894;10.192;2023-04-06T07:41:28;21.80;26.70
40534;DHT22;26233;51.894;10.192;2023-04-06T07:43:55;22.00;26.70
40534;DHT22;26233;51.894;10.192;2023-04-06T07:46:24;22.30;26.70
40534;DHT22;26233;51.894;10.192;2023-04-06T07:48:52;22.40;26.20
40534;DHT22;26233;51.894;10.192;2023-04-06T07:51:19;22.50;26.00
40534;DHT22;26233;51.894;10.192;2023-04-06T07:53:46;22.60;26.10
40534;DHT22;26233;51.894;10.192;2023-04-06T07:56:13;22.70;25.90
40534;DHT22;26233;51.894;10.192;2023-04-06T07:58:42;22.80;25.70
40534;DHT22;26233;51.894;10.192;2023-04-06T08:01:09;22.90;25.50
40534;DHT22;26233;51.894;10.192;2023-04-06T08:03:38;23.00;25.60
40534;DHT22;26233;51.894;10.192;2023-04-06T08:06:06;23.00;25.30
40534;DHT22;26233;51.894;10.192;2023-04-06T08:08:33;23.10;25.30
40534;DHT22;26233;51.894;10.192;2023-04-06T08:11:00;23.00;25.00
40534;DHT22;26233;51.894;10.192;2023-04-06T08:13:29;23.00;24.80
40534;DHT22;26233;51.894;10.192;2023-04-06T08:15:58;22.90;24.70
40534;DHT22;26233;51.894;10.192;2023-04-06T08:18:26;22.90;24.70
40534;DHT22;26233;51.894;10.192;2023-04-06T08:20:54;22.90;24.80
40534;DHT22;26233;51.894;10.192;2023-04-06T08:23:21;22.90;24.60
40534;DHT22;26233;51.894;10.192;2023-04-06T08:25:48;23.00;24.70
40534;DHT22;26233;51.894;10.192;2023-04-06T08:28:15;23.10;24.80
40534;DHT22;26233;51.894;10.192;2023-04-06T08:30:43;23.20;24.70
40534;DHT22;26233;51.894;10.192;2023-04-06T08:33:11;23.30;24.70
40534;DHT22;26233;51.894;10.192;2023-04-06T08:35:38;23.40;24.50
40534;DHT22;26233;51.894;10.192;2023-04-06T08:38:06;23.50;24.50
40534;DHT22;26233;51.894;10.192;2023-04-06T08:40:36;23.70;24.50
40534;DHT22;26233;51.894;10.192;2023-04-06T08:43:06;23.70;24.10
40534;DHT22;26233;51.894;10.192;2023-04-06T08:45:38;23.80;24.00
40534;DHT22;26233;51.894;10.192;2023-04-06T08:48:05;23.80;24.20
40534;DHT22;26233;51.894;10.192;2023-04-06T08:50:35;23.90;24.30
40534;DHT22;26233;51.894;10.192;2023-04-06T08:53:02;24.00;23.80
40534;DHT22;26233;51.894;10.192;2023-04-06T08:55:29;24.00;23.80
40534;DHT22;26233;51.894;10.192;2023-04-06T08:57:58;23.90;23.70
40534;DHT22;26233;51.894;10.192;2023-04-06T09:00:26;24.00;23.70
40534;DHT22;26233;51.894;10.192;2023-04-06T09:02:57;24.00;23.60
40534;DHT22;26233;51.894;10.192;2023-04-06T09:05:25;24.00;23.50
40534;DHT22;26233;51.894;10.192;2023-04-06T09:07:54;24.10;23.80
40534;DHT22;26233;51.894;10.192;2023-04-06T09:10:21;24.30;23.80
40534;DHT22;26233;51.894;10.192;2023-04-06T09:12:51;24.50;23.80
40534;DHT22;26233;51.894;10.192;2023-04-06T09:15:19;24.60;23.50
40534;DHT22;26233;51.894;10.192;2023-04-06T09:17:47;24.70;23.50
40534;DHT22;26233;51.894;10.192;2023-04-06T09:20:14;24.80;23.50
40534;DHT22;26233;51.894;10.192;2023-04-06T09:22:44;24.80;23.30
40534;DHT22;26233;51.894;10.192;2023-04-06T09:25:19;24.70;23.00
40534;DHT22;26233;51.894;10.192;2023-04-06T09:27:49;24.60;22.70
40534;DHT22;26233;51.894;10.192;2023-04-06T09:30:25;24.60;23.10
40534;DHT22;26233;51.894;10.192;2023-04-06T09:32:55;24.60;23.00
40534;DHT22;26233;51.894;10.192;2023-04-06T09:35:23;24.50;22.80
40534;DHT22;26233;51.894;10.192;2023-04-06T09:37:53;24.50;22.80
40534;DHT22;26233;51.894;10.192;2023-04-06T09:40:22;24.50;22.80
40534;DHT22;26233;51.894;10.192;2023-04-06T09:42:50;24.50;22.60
40534;DHT22;26233;51.894;10.192;2023-04-06T09:45:20;24.40;22.50
40534;DHT22;26233;51.894;10.192;2023-04-06T09:47:47;24.40;22.70
40534;DHT22;26233;51.894;10.192;2023-04-06T09:50:15;24.50;23.00
40534;DHT22;26233;51.894;10.192;2023-04-06T09:52:47;24.60;22.90
40534;DHT22;26233;51.894;10.192;2023-04-06T09:55:22;24.60;22.50
40534;DHT22;26233;51.894;10.192;2023-04-06T09:57:57;24.60;22.60
40534;DHT22;26233;51.894;10.192;2023-04-06T10:00:27;24.60;22.50
40534;DHT22;26233;51.894;10.192;2023-04-06T10:03:04;24.60;22.70
40534;DHT22;26233;51.894;10.192;2023-04-06T10:05:43;24.70;22.50
40534;DHT22;26233;51.894;10.192;2023-04-06T10:08:13;24.70;22.40
40534;DHT22;26233;51.894;10.192;2023-04-06T10:10:45;24.90;22.60
40534;DHT22;26233;51.894;10.192;2023-04-06T10:13:13;24.90;22.40
40534;DHT22;26233;51.894;10.192;2023-04-06T10:15:40;24.90;22.40
40534;DHT22;26233;51.894;10.192;2023-04-06T10:18:09;24.90;22.40
40534;DHT22;26233;51.894;10.192;2023-04-06T10:20:39;25.00;22.40
40534;DHT22;26233;51.894;10.192;2023-04-06T10:23:12;25.00;22.10
40534;DHT22;26233;51.894;10.192;2023-04-06T10:25:53;25.00;21.90
40534;DHT22;26233;51.894;10.192;2023-04-06T10:28:21;24.80;21.20
40534;DHT22;26233;51.894;10.192;2023-04-06T10:30:48;24.70;21.60
40534;DHT22;26233;51.894;10.192;2023-04-06T10:33:17;24.60;21.50
40534;DHT22;26233;51.894;10.192;2023-04-06T10:35:46;24.60;21.70
40534;DHT22;26233;51.894;10.192;2023-04-06T10:38:14;24.60;21.50
40534;DHT22;26233;51.894;10.192;2023-04-06T10:40:45;24.60;21.60
40534;DHT22;26233;51.894;10.192;2023-04-06T10:43:20;24.60;21.70
40534;DHT22;26233;51.894;10.192;2023-04-06T10:45:55;24.50;21.00
40534;DHT22;26233;51.894;10.192;2023-04-06T10:48:24;24.40;21.00
40534;DHT22;26233;51.894;10.192;2023-04-06T10:50:53;24.40;21.60
40534;DHT22;26233;51.894;10.192;2023-04-06T10:53:21;24.40;21.50
40534;DHT22;26233;51.894;10.192;2023-04-06T10:55:50;24.50;21.20
40534;DHT22;26233;51.894;10.192;2023-04-06T10:58:24;24.40;20.80
40534;DHT22;26233;51.894;10.192;2023-04-06T11:00:53;24.30;20.90
40534;DHT22;26233;51.894;10.192;2023-04-06T11:03:21;24.30;21.10
40534;DHT22;26233;51.894;10.192;2023-04-06T11:05:49;24.30;21.20
40534;DHT22;26233;51.894;10.192;2023-04-06T11:08:25;24.30;21.00
40534;DHT22;26233;51.894;10.192;2023-04-06T11:11:07;24.30;21.20
40534;DHT22;26233;51.894;10.192;2023-04-06T11:13:41;24.30;20.60
40534;DHT22;26233;51.894;10.192;2023-04-06T11:16:18;24.40;21.10
40534;DHT22;26233;51.894;10.192;2023-04-06T11:18:50;24.50;20.90
40534;DHT22;26233;51.894;10.192;2023-04-06T11:21:19;24.60;20.80
40534;DHT22;26233;51.894;10.192;2023-04-06T11:23:47;24.50;20.80
40534;DHT22;26233;51.894;10.192;2023-04-06T11:26:15;24.30;20.70
40534;DHT22;26233;51.894;10.192;2023-04-06T11:28:43;24.30;20.80
40534;DHT22;26233;51.894;10.192;2023-04-06T11:31:11;24.20;20.70
40534;DHT22;26233;51.894;10.192;2023-04-06T11:33:39;24.10;20.60
40534;DHT22;26233;51.894;10.192;2023-04-06T11:36:07;24.00;20.50
40534;DHT22;26233;51.894;10.192;2023-04-06T11:38:38;23.90;20.60
40534;DHT22;26233;51.894;10.192;2023-04-06T11:41:06;23.90;20.30
40534;DHT22;26233;51.894;10.192;2023-04-06T11:43:33;23.80;20.30
40534;DHT22;26233;51.894;10.192;2023-04-06T11:46:03;23.70;20.30
40534;DHT22;26233;51.894;10.192;2023-04-06T11:48:32;23.60;20.30
40534;DHT22;26233;51.894;10.192;2023-04-06T11:51:10;23.50;20.30
40534;DHT22;26233;51.894;10.192;2023-04-06T11:53:43;23.40;20.20
40534;DHT22;26233;51.894;10.192;2023-04-06T11:56:11;23.30;19.90
40534;DHT22;26233;51.894;10.192;2023-04-06T11:58:49;23.30;19.90
40534;DHT22;26233;51.894;10.192;2023-04-06T12:01:18;23.20;20.00
40534;DHT22;26233;51.894;10.192;2023-04-06T12:03:45;23.10;19.90
40534;DHT22;26233;51.894;10.192;2023-04-06T12:06:13;23.00;19.90
40534;DHT22;26233;51.894;10.192;2023-04-06T12:08:40;23.00;20.00
40534;DHT22;26233;51.894;10.192;2023-04-06T12:11:10;22.90;19.90
40534;DHT22;26233;51.894;10.192;2023-04-06T12:13:37;22.80;19.70
40534;DHT22;26233;51.894;10.192;2023-04-06T12:16:05;22.60;19.40
40534;DHT22;26233;51.894;10.192;2023-04-06T12:18:34;22.40;19.20
40534;DHT22;26233;51.894;10.192;2023-04-06T12:21:01;22.20;19.20
40534;DHT22;26233;51.894;10.192;2023-04-06T12:23:28;22.00;19.20
40534;DHT22;26233;51.894;10.192;2023-04-06T12:25:55;21.90;19.30
40534;DHT22;26233;51.894;10.192;2023-04-06T12:28:22;21.80;19.30
40534;DHT22;26233;51.894;10.192;2023-04-06T12:30:52;21.70;19.20
40534;DHT22;26233;51.894;10.192;2023-04-06T12:33:20;21.60;19.20
40534;DHT22;26233;51.894;10.192;2023-04-06T12:35:51;21.40;19.00
40534;DHT22;26233;51.894;10.192;2023-04-06T12:38:18;21.20;18.90
40534;DHT22;26233;51.894;10.192;2023-04-06T12:40:46;21.10;19.10
40534;DHT22;26233;51.894;10.192;2023-04-06T12:43:13;21.10;19.30
40534;DHT22;26233;51.894;10.192;2023-04-06T12:45:40;21.10;19.20
40534;DHT22;26233;51.894;10.192;2023-04-06T12:48:09;21.00;19.10
40534;DHT22;26233;51.894;10.192;2023-04-06T12:50:36;21.00;19.20
40534;DHT22;26233;51.894;10.192;2023-04-06T12:53:05;21.00;19.10
40534;DHT22;26233;51.894;10.192;2023-04-06T12:55:32;21.00;19.20
40534;DHT22;26233;51.894;10.192;2023-04-06T12:58:01;21.00;19.30
40534;DHT22;26233;51.894;10.192;2023-04-06T13:00:28;21.00;19.20
40534;DHT22;26233;51.894;10.192;2023-04-06T13:02:58;20.90;19.10
40534;DHT22;26233;51.894;10.192;2023-04-06T13:05:25;20.90;19.30
40534;DHT22;26233;51.894;10.192;2023-04-06T13:07:52;20.90;19.20
40534;DHT22;26233;51.894;10.192;2023-04-06T13:10:22;20.90;19.20
40534;DHT22;26233;51.894;10.192;2023-04-06T13:12:49;20.90;19.30
40534;DHT22;26233;51.894;10.192;2023-04-06T13:15:16;20.90;19.30
40534;DHT22;26233;51.894;10.192;2023-04-06T13:17:44;20.90;19.30
40534;DHT22;26233;51.894;10.192;2023-04-06T13:20:11;20.90;19.10
40534;DHT22;26233;51.894;10.192;2023-04-06T13:22:38;20.80;19.20
40534;DHT22;26233;51.894;10.192;2023-04-06T13:25:06;20.80;19.10
40534;DHT22;26233;51.894;10.192;2023-04-06T13:27:35;20.70;19.00
40534;DHT22;26233;51.894;10.192;2023-04-06T13:30:03;20.60;19.00
40534;DHT22;26233;51.894;10.192;2023-04-06T13:32:32;20.50;19.00
40534;DHT22;26233;51.894;10.192;2023-04-06T13:34:59;20.50;19.10
40534;DHT22;26233;51.894;10.192;2023-04-06T13:37:27;20.50;19.20
40534;DHT22;26233;51.894;10.192;2023-04-06T13:39:58;20.50;19.20
40534;DHT22;26233;51.894;10.192;2023-04-06T13:42:26;20.50;19.20
40534;DHT22;26233;51.894;10.192;2023-04-06T13:44:55;20.40;19.10
40534;DHT22;26233;51.894;10.192;2023-04-06T13:47:24;20.30;19.20
40534;DHT22;26233;51.894;10.192;2023-04-06T13:49:51;20.30;19.30
40534;DHT22;26233;51.894;10.192;2023-04-06T13:52:19;20.40;19.30
40534;DHT22;26233;51.894;10.192;2023-04-06T13:54:46;20.30;19.20
40534;DHT22;26233;51.894;10.192;2023-04-06T13:57:13;20.30;19.50
40534;DHT22;26233;51.894;10.192;2023-04-06T13:59:40;20.30;19.30
40534;DHT22;26233;51.894;10.192;2023-04-06T14:02:10;20.30;19.90
40534;DHT22;26233;51.894;10.192;2023-04-06T14:04:37;20.40;19.60
40534;DHT22;26233;51.894;10.192;2023-04-06T14:07:04;20.50;19.60
40534;DHT22;26233;51.894;10.192;2023-04-06T14:09:33;20.40;19.30
40534;DHT22;26233;51.894;10.192;2023-04-06T14:12:01;20.40;19.30
40534;DHT22;26233;51.894;10.192;2023-04-06T14:14:28;20.40;19.20
40534;DHT22;26233;51.894;10.192;2023-04-06T14:16:58;20.30;19.30
40534;DHT22;26233;51.894;10.192;2023-04-06T14:19:26;20.40;19.30
40534;DHT22;26233;51.894;10.192;2023-04-06T14:21:53;20.30;19.20
40534;DHT22;26233;51.894;10.192;2023-04-06T14:24:21;20.30;19.20
40534;DHT22;26233;51.894;10.192;2023-04-06T14:26:48;20.30;19.20
40534;DHT22;26233;51.894;10.192;2023-04-06T14:29:15;20.20;19.20
40534;DHT22;26233;51.894;10.192;2023-04-06T14:31:45;20.10;19.10
40534;DHT22;26233;51.894;10.192;2023-04-06T14:34:13;20.10;19.10
40534;DHT22;26233;51.894;10.192;2023-04-06T14:36:42;20.00;19.10
40534;DHT22;26233;51.894;10.192;2023-04-06T14:39:09;20.00;19.10
40534;DHT22;26233;51.894;10.192;2023-04-06T14:41:36;20.00;19.20
40534;DHT22;26233;51.894;10.192;2023-04-06T14:44:03;19.90;19.10
40534;DHT22;26233;51.894;10.192;2023-04-06T14:46:33;19.90;19.20
40534;DHT22;26233;51.894;10.192;2023-04-06T14:49:00;19.90;19.20
40534;DHT22;26233;51.894;10.192;2023-04-06T14:51:27;19.80;19.10
40534;DHT22;26233;51.894;10.192;2023-04-06T14:53:56;19.80;19.10
40534;DHT22;26233;51.894;10.192;2023-04-06T14:56:23;19.80;19.20
40534;DHT22;26233;51.894;10.192;2023-04-06T14:58:51;19.80;19.20
40534;DHT22;26233;51.894;10.192;2023-04-06T15:01:19;19.80;19.20
40534;DHT22;26233;51.894;10.192;2023-04-06T15:03:49;19.80;19.80
40534;DHT22;26233;51.894;10.192;2023-04-06T15:06:18;19.80;19.30
40534;DHT22;26233;51.894;10.192;2023-04-06T15:08:47;19.70;19.20
40534;DHT22;26233;51.894;10.192;2023-04-06T15:11:15;19.70;19.10
40534;DHT22;26233;51.894;10.192;2023-04-06T15:13:42;19.60;19.50
40534;DHT22;26233;51.894;10.192;2023-04-06T15:16:10;19.40;18.90
40534;DHT22;26233;51.894;10.192;2023-04-06T15:18:37;19.30;18.90
40534;DHT22;26233;51.894;10.192;2023-04-06T15:21:04;19.30;19.00
40534;DHT22;26233;51.894;10.192;2023-04-06T15:23:31;19.20;19.00
40534;DHT22;26233;51.894;10.192;2023-04-06T15:25:59;19.20;19.00
40534;DHT22;26233;51.894;10.192;2023-04-06T15:28:28;19.10;18.90